Time;durP1;ratioP1;P1;durP2;ratioP2;P2;SDS_P1;SDS_P2;PMS_P1;PMS_P2;Temp;Humidity;BMP_temperature;BMP_pressure;BME280_temperature;BME280_humidity;BME280_pressure;Samples;Min_cycle;Max_cycle;Signal;HPM_P1;HPM_P2
2023/07/14 00:01:36;;;;;;;8.30;6.10;;;;;;;;;;108159;1251;22640;-79
2023/07/14 00:04:04;;;;;;;11.50;5.70;;;;;;;;;;108156;1253;22543;-81
2023/07/14 00:06:30;;;;;;;8.70;5.80;;;;;;;;;;108023;1256;22557;-80
2023/07/14 00:08:57;;;;;;;11.50;5.90;;;;;;;;;;108101;1253;23269;-79
2023/07/14 00:11:23;;;;;;;10.80;6.40;;;;;;;;;;108162;1251;25448;-79
2023/07/14 00:13:50;;;;;;;8.80;6.40;;;;;;;;;;108210;1254;22728;-81
2023/07/14 00:16:18;;;;;;;8.20;5.20;;;;;;;;;;108168;1253;23474;-80
2023/07/14 00:18:44;;;;;;;7.50;6.40;;;;;;;;;;108093;1253;22570;-81
2023/07/14 00:21:15;;;;;;;8.40;5.60;;;;;;;;;;108056;1251;23784;-79
2023/07/14 00:23:42;;;;;;;10.10;5.60;;;;;;;;;;108168;1251;22548;-79
2023/07/14 00:26:10;;;;;;;8.00;4.80;;;;;;;;;;108193;1254;22608;-80
2023/07/14 00:28:38;;;;;;;9.50;5.10;;;;;;;;;;108222;1251;23269;-80
2023/07/14 00:31:04;;;;;;;6.50;5.10;;;;;;;;;;108099;1256;22661;-80
2023/07/14 00:33:30;;;;;;;8.00;5.00;;;;;;;;;;107623;1253;24367;-79
2023/07/14 00:35:57;;;;;;;9.90;6.20;;;;;;;;;;107457;1251;24894;-79
2023/07/14 00:38:23;;;;;;;12.80;6.30;;;;;;;;;;107464;1253;22638;-79
2023/07/14 00:40:50;;;;;;;8.90;5.20;;;;;;;;;;107543;1255;22583;-79
2023/07/14 00:43:17;;;;;;;8.60;5.20;;;;;;;;;;107620;1253;23929;-80
2023/07/14 00:45:44;;;;;;;11.60;5.80;;;;;;;;;;107596;1253;22968;-79
2023/07/14 00:48:12;;;;;;;7.20;5.50;;;;;;;;;;107595;1252;22462;-79
2023/07/14 00:50:58;;;;;;;6.10;5.00;;;;;;;;;;107631;1255;22601;-79
2023/07/14 00:53:32;;;;;;;9.60;5.70;;;;;;;;;;108215;1250;22691;-80
2023/07/14 00:56:01;;;;;;;7.10;5.30;;;;;;;;;;108464;1251;22259;-81
2023/07/14 00:58:27;;;;;;;;;;;;;;;;;;110740;1251;22560;-81
2023/07/14 01:01:13;;;;;;;8.50;4.70;;;;;;;;;;107920;1254;25583;-79
2023/07/14 01:03:40;;;;;;;8.80;5.90;;;;;;;;;;107630;1250;25569;-79
2023/07/14 01:06:10;;;;;;;6.30;4.60;;;;;;;;;;107625;1254;22968;-79
2023/07/14 01:08:38;;;;;;;7.00;4.70;;;;;;;;;;107568;1252;22607;-80
2023/07/14 01:11:05;;;;;;;5.80;4.50;;;;;;;;;;107434;1253;23925;-80
2023/07/14 01:13:33;;;;;;;5.40;4.40;;;;;;;;;;107631;1252;22691;-79
2023/07/14 01:16:15;;;;;;;7.60;4.40;;;;;;;;;;107514;1250;22527;-79
2023/07/14 01:18:46;;;;;;;7.70;5.10;;;;;;;;;;107574;1251;25231;-80
2023/07/14 01:21:16;;;;;;;12.40;5.80;;;;;;;;;;107605;1251;25494;-80
2023/07/14 01:24:10;;;;;;;5.50;4.50;;;;;;;;;;107606;1255;22534;-81
2023/07/14 01:26:50;;;;;;;8.90;6.20;;;;;;;;;;107568;1255;22636;-79
2023/07/14 01:29:17;;;;;;;18.60;8.10;;;;;;;;;;109811;1251;22349;-81
2023/07/14 01:31:43;;;;;;;8.50;6.40;;;;;;;;;;107864;1251;22604;-83
2023/07/14 01:34:09;;;;;;;8.90;6.60;;;;;;;;;;107588;1251;22680;-79
2023/07/14 01:36:36;;;;;;;8.70;6.40;;;;;;;;;;107452;1251;22616;-80
2023/07/14 01:39:03;;;;;;;7.80;5.20;;;;;;;;;;107523;1256;22472;-80
2023/07/14 01:41:30;;;;;;;6.00;4.70;;;;;;;;;;107441;1251;22546;-80
2023/07/14 01:43:58;;;;;;;9.40;4.20;;;;;;;;;;107482;1253;22524;-80
2023/07/14 01:46:25;;;;;;;6.10;5.00;;;;;;;;;;108875;1251;22270;-81
2023/07/14 01:48:56;;;;;;;5.80;4.00;;;;;;;;;;110570;1251;22193;-81
2023/07/14 01:51:23;;;;;;;5.30;4.70;;;;;;;;;;110747;1251;22373;-80
2023/07/14 01:53:56;;;;;;;5.80;5.10;;;;;;;;;;110631;1253;22293;-80
2023/07/14 01:56:22;;;;;;;9.60;6.10;;;;;;;;;;108053;1253;22583;-79
2023/07/14 01:58:51;;;;;;;7.70;6.00;;;;;;;;;;108241;1251;24331;-79
2023/07/14 02:01:17;;;;;;;6.60;5.60;;;;;;;;;;108052;1251;22478;-79
2023/07/14 02:03:45;;;;;;;8.50;6.00;;;;;;;;;;108206;1255;22629;-80
2023/07/14 02:06:12;;;;;;;6.20;4.90;;;;;;;;;;108015;1251;22532;-79
2023/07/14 02:08:38;;;;;;;7.20;5.60;;;;;;;;;;107613;1251;25388;-79
2023/07/14 02:11:05;;;;;;;6.10;5.50;;;;;;;;;;107477;1251;23690;-79
2023/07/14 02:13:31;;;;;;;9.70;5.40;;;;;;;;;;107587;1255;25309;-80
2023/07/14 02:15:57;;;;;;;8.10;5.70;;;;;;;;;;107438;1251;22654;-79
2023/07/14 02:18:25;;;;;;;5.90;5.30;;;;;;;;;;107592;1250;22537;-79
2023/07/14 02:20:52;;;;;;;7.00;6.00;;;;;;;;;;107415;1253;24194;-81
2023/07/14 02:23:19;;;;;;;5.90;5.20;;;;;;;;;;107627;1256;22674;-79
2023/07/14 02:25:58;;;;;;;8.00;5.00;;;;;;;;;;110713;1252;22347;-81
2023/07/14 02:28:26;;;;;;;8.90;5.80;;;;;;;;;;108181;1251;22712;-81
2023/07/14 02:30:54;;;;;;;6.00;4.70;;;;;;;;;;108188;1251;24170;-80
2023/07/14 02:33:26;;;;;;;7.20;4.10;;;;;;;;;;108208;1251;22624;-81
2023/07/14 02:35:56;;;;;;;5.10;4.00;;;;;;;;;;108011;1256;26508;-81
2023/07/14 02:38:24;;;;;;;10.00;4.90;;;;;;;;;;108324;1252;23303;-81
2023/07/14 02:40:51;;;;;;;13.30;7.20;;;;;;;;;;110123;1251;22568;-81
2023/07/14 02:43:18;;;;;;;7.10;5.70;;;;;;;;;;108623;1254;22220;-79
2023/07/14 02:45:52;;;;;;;7.30;4.30;;;;;;;;;;110735;1251;23109;-80
2023/07/14 02:48:19;;;;;;;5.50;3.80;;;;;;;;;;108322;1252;22562;-81
2023/07/14 02:50:45;;;;;;;4.60;3.70;;;;;;;;;;108209;1252;22520;-81
2023/07/14 02:53:12;;;;;;;10.50;4.40;;;;;;;;;;109804;1251;25561;-81
2023/07/14 02:55:39;;;;;;;4.60;3.90;;;;;;;;;;108144;1251;22543;-79
2023/07/14 02:58:05;;;;;;;8.70;3.30;;;;;;;;;;108000;1251;22633;-79
2023/07/14 03:00:33;;;;;;;6.50;3.40;;;;;;;;;;108138;1251;22623;-80
2023/07/14 03:02:59;;;;;;;8.80;3.00;;;;;;;;;;108108;1251;25405;-81
2023/07/14 03:05:26;;;;;;;7.00;3.20;;;;;;;;;;108194;1251;22579;-80
2023/07/14 03:07:52;;;;;;;4.20;3.60;;;;;;;;;;108207;1251;22531;-80
2023/07/14 03:10:19;;;;;;;3.80;3.00;;;;;;;;;;108180;1253;22525;-79
2023/07/14 03:12:45;;;;;;;3.90;3.40;;;;;;;;;;108197;1251;24219;-79
2023/07/14 03:15:12;;;;;;;5.30;3.20;;;;;;;;;;108167;1251;23405;-81
2023/07/14 03:17:38;;;;;;;5.60;3.20;;;;;;;;;;108208;1251;23020;-81
2023/07/14 03:20:09;;;;;;;6.90;3.50;;;;;;;;;;108143;1252;22522;-78
2023/07/14 03:22:36;;;;;;;4.40;3.60;;;;;;;;;;108135;1252;22531;-79
2023/07/14 03:25:02;;;;;;;5.00;4.40;;;;;;;;;;108162;1250;22534;-79
2023/07/14 03:27:30;;;;;;;6.50;3.50;;;;;;;;;;108192;1251;22639;-79
2023/07/14 03:29:56;;;;;;;4.10;3.30;;;;;;;;;;108217;1251;24356;-80
2023/07/14 03:32:22;;;;;;;4.80;3.80;;;;;;;;;;107599;1251;22653;-79
2023/07/14 03:34:49;;;;;;;3.60;3.30;;;;;;;;;;107609;1252;26074;-79
2023/07/14 03:37:15;;;;;;;5.80;3.70;;;;;;;;;;107569;1251;22576;-80
2023/07/14 03:39:42;;;;;;;5.30;2.90;;;;;;;;;;107549;1251;22639;-79
2023/07/14 03:42:08;;;;;;;5.60;3.50;;;;;;;;;;107610;1256;22556;-79
2023/07/14 03:44:34;;;;;;;7.90;4.20;;;;;;;;;;107604;1251;22674;-81
2023/07/14 03:47:02;;;;;;;7.30;4.60;;;;;;;;;;107569;1251;22531;-80
2023/07/14 03:49:28;;;;;;;8.20;5.30;;;;;;;;;;107536;1251;22700;-78
2023/07/14 03:51:55;;;;;;;5.50;4.70;;;;;;;;;;107557;1251;22544;-80
2023/07/14 03:54:21;;;;;;;6.20;4.50;;;;;;;;;;107534;1251;26133;-79
2023/07/14 03:56:48;;;;;;;10.90;5.70;;;;;;;;;;107571;1252;24243;-79
2023/07/14 03:59:14;;;;;;;5.50;4.50;;;;;;;;;;108351;1251;22559;-79
2023/07/14 04:01:40;;;;;;;8.30;4.60;;;;;;;;;;108225;1251;22586;-79
2023/07/14 04:04:07;;;;;;;8.70;5.10;;;;;;;;;;108031;1251;24284;-79
2023/07/14 04:06:33;;;;;;;6.70;4.40;;;;;;;;;;108129;1251;22532;-80
2023/07/14 04:09:00;;;;;;;5.20;4.30;;;;;;;;;;107964;1251;22640;-80
2023/07/14 04:11:26;;;;;;;9.10;5.00;;;;;;;;;;108140;1254;24894;-80
2023/07/14 04:13:53;;;;;;;5.20;4.20;;;;;;;;;;108180;1250;22568;-79
2023/07/14 04:16:23;;;;;;;6.20;4.40;;;;;;;;;;108133;1251;26622;-79
2023/07/14 04:18:50;;;;;;;5.30;4.20;;;;;;;;;;108128;1251;22713;-80
2023/07/14 04:21:16;;;;;;;4.60;4.10;;;;;;;;;;108172;1253;24308;-81
2023/07/14 04:23:43;;;;;;;5.60;4.20;;;;;;;;;;108171;1251;24280;-79
2023/07/14 04:26:11;;;;;;;7.40;5.40;;;;;;;;;;107961;1254;25398;-81
2023/07/14 04:28:38;;;;;;;6.90;4.60;;;;;;;;;;108110;1251;23720;-79
2023/07/14 04:31:04;;;;;;;6.00;4.30;;;;;;;;;;108095;1251;25550;-78
2023/07/14 04:33:30;;;;;;;5.40;4.00;;;;;;;;;;108113;1251;22667;-81
2023/07/14 04:35:58;;;;;;;7.40;4.40;;;;;;;;;;108182;1251;22633;-81
2023/07/14 04:38:25;;;;;;;10.50;5.80;;;;;;;;;;108127;1251;22663;-79
2023/07/14 04:40:52;;;;;;;5.10;4.40;;;;;;;;;;108123;1251;24206;-79
2023/07/14 04:43:18;;;;;;;7.30;5.40;;;;;;;;;;108180;1254;25507;-81
2023/07/14 04:45:45;;;;;;;6.30;4.30;;;;;;;;;;108033;1251;22561;-81
2023/07/14 04:48:12;;;;;;;7.10;4.80;;;;;;;;;;107972;1254;25335;-79
2023/07/14 04:50:38;;;;;;;8.30;5.20;;;;;;;;;;108139;1251;22609;-80
2023/07/14 04:53:05;;;;;;;6.40;5.10;;;;;;;;;;108098;1251;25445;-80
2023/07/14 04:55:35;;;;;;;7.70;4.70;;;;;;;;;;108124;1251;22542;-79
2023/07/14 04:58:01;;;;;;;5.40;4.60;;;;;;;;;;108166;1251;22543;-81
2023/07/14 05:00:28;;;;;;;7.10;4.50;;;;;;;;;;108165;1251;22577;-79
2023/07/14 05:02:56;;;;;;;8.70;5.00;;;;;;;;;;107513;1251;23756;-80
2023/07/14 05:05:23;;;;;;;6.60;4.90;;;;;;;;;;108214;1251;22968;-80
2023/07/14 05:07:50;;;;;;;10.00;5.00;;;;;;;;;;107532;1251;24337;-79
2023/07/14 05:10:16;;;;;;;8.40;5.70;;;;;;;;;;107581;1252;24220;-80
2023/07/14 05:12:43;;;;;;;8.60;4.60;;;;;;;;;;107596;1251;22588;-80
2023/07/14 05:15:12;;;;;;;9.40;4.80;;;;;;;;;;107526;1251;22553;-79
2023/07/14 05:17:39;;;;;;;5.70;5.10;;;;;;;;;;107336;1251;25509;-80
2023/07/14 05:20:06;;;;;;;8.50;5.20;;;;;;;;;;107544;1251;22533;-79
2023/07/14 05:22:33;;;;;;;5.40;4.20;;;;;;;;;;107578;1251;26626;-79
2023/07/14 05:24:59;;;;;;;7.10;4.70;;;;;;;;;;107532;1251;23098;-80
2023/07/14 05:27:26;;;;;;;8.10;5.00;;;;;;;;;;107527;1251;26794;-79
2023/07/14 05:29:53;;;;;;;8.60;4.30;;;;;;;;;;107576;1256;23235;-79
2023/07/14 05:32:21;;;;;;;5.80;4.30;;;;;;;;;;107424;1251;22535;-79
2023/07/14 05:34:48;;;;;;;6.40;5.20;;;;;;;;;;107432;1251;23300;-79
2023/07/14 05:37:15;;;;;;;8.60;5.50;;;;;;;;;;108298;1251;24281;-79
2023/07/14 05:39:42;;;;;;;5.20;4.50;;;;;;;;;;108159;1251;24245;-79
2023/07/14 05:42:09;;;;;;;7.00;4.30;;;;;;;;;;108141;1251;22823;-79
2023/07/14 05:44:35;;;;;;;8.00;4.60;;;;;;;;;;108043;1251;22655;-80
2023/07/14 05:47:02;;;;;;;9.40;4.80;;;;;;;;;;108157;1251;24198;-80
2023/07/14 05:49:28;;;;;;;4.50;3.90;;;;;;;;;;108537;1250;22376;-80
2023/07/14 05:51:55;;;;;;;5.50;4.90;;;;;;;;;;108949;1251;22692;-81
2023/07/14 05:54:21;;;;;;;8.00;5.50;;;;;;;;;;108137;1251;25319;-79
2023/07/14 05:56:47;;;;;;;6.70;4.50;;;;;;;;;;108204;1251;24203;-81
2023/07/14 05:59:14;;;;;;;9.10;5.40;;;;;;;;;;108089;1255;22624;-82
2023/07/14 06:01:40;;;;;;;7.60;5.10;;;;;;;;;;109044;1251;22445;-80
2023/07/14 06:04:07;;;;;;;5.90;4.80;;;;;;;;;;108472;1251;22667;-79
2023/07/14 06:06:33;;;;;;;13.00;5.20;;;;;;;;;;108201;1251;22543;-80
2023/07/14 06:09:00;;;;;;;11.30;4.30;;;;;;;;;;108543;1251;22500;-81
2023/07/14 06:11:26;;;;;;;7.30;4.60;;;;;;;;;;108736;1251;22540;-79
2023/07/14 06:13:53;;;;;;;5.70;3.90;;;;;;;;;;108371;1251;25320;-80
2023/07/14 06:19:42;;;;;;;8.80;4.90;;;;;;;;;;108375;1254;22524;-81
2023/07/14 06:22:08;;;;;;;10.80;5.10;;;;;;;;;;108497;1254;22720;-79
2023/07/14 06:24:35;;;;;;;5.70;4.40;;;;;;;;;;108251;1251;22569;-81
2023/07/14 06:27:02;;;;;;;6.60;4.00;;;;;;;;;;108536;1251;22592;-79
2023/07/14 06:29:29;;;;;;;6.40;4.80;;;;;;;;;;108808;1251;25499;-79
2023/07/14 06:31:55;;;;;;;5.10;4.20;;;;;;;;;;108586;1251;22561;-82
2023/07/14 06:34:21;;;;;;;5.10;4.50;;;;;;;;;;108815;1254;22573;-80
2023/07/14 06:36:48;;;;;;;5.50;4.30;;;;;;;;;;108793;1251;22559;-79
2023/07/14 06:39:14;;;;;;;5.20;4.10;;;;;;;;;;108965;1251;22541;-79
2023/07/14 06:41:41;;;;;;;4.20;3.80;;;;;;;;;;108817;1251;23196;-80
2023/07/14 06:44:07;;;;;;;5.90;3.80;;;;;;;;;;108969;1252;22536;-80
2023/07/14 06:46:34;;;;;;;11.90;3.70;;;;;;;;;;108711;1251;22566;-80
2023/07/14 06:49:00;;;;;;;4.70;3.50;;;;;;;;;;108408;1254;25395;-81
2023/07/14 06:51:26;;;;;;;6.40;3.60;;;;;;;;;;108447;1251;22513;-81
2023/07/14 06:53:53;;;;;;;5.10;3.10;;;;;;;;;;108578;1251;22526;-81
2023/07/14 06:56:27;;;;;;;5.50;3.90;;;;;;;;;;105676;1288;553089;-79
2023/07/14 06:58:53;;;;;;;5.80;3.60;;;;;;;;;;107922;1263;24210;-79
2023/07/14 07:01:21;;;;;;;7.30;3.70;;;;;;;;;;107730;1262;22527;-79
2023/07/14 07:03:48;;;;;;;15.60;7.50;;;;;;;;;;107780;1261;23011;-79
2023/07/14 07:06:15;;;;;;;6.60;4.00;;;;;;;;;;107686;1263;22578;-81
2023/07/14 07:08:41;;;;;;;4.40;3.40;;;;;;;;;;108199;1256;22577;-79
2023/07/14 07:11:11;;;;;;;9.60;8.70;;;;;;;;;;108308;1254;164432;-81
2023/07/14 07:13:38;;;;;;;7.20;3.90;;;;;;;;;;108713;1253;25399;-79
2023/07/14 07:16:04;;;;;;;3.70;3.10;;;;;;;;;;108770;1253;25374;-79
2023/07/14 07:18:31;;;;;;;4.90;3.60;;;;;;;;;;108636;1254;23463;-79
2023/07/14 07:20:58;;;;;;;5.90;4.00;;;;;;;;;;108444;1253;22731;-81
2023/07/14 07:23:24;;;;;;;9.20;4.00;;;;;;;;;;108425;1257;56839;-81
2023/07/14 07:25:51;;;;;;;7.00;4.00;;;;;;;;;;108712;1253;25033;-79
2023/07/14 07:28:18;;;;;;;5.70;3.30;;;;;;;;;;108805;1251;22538;-79
2023/07/14 07:30:45;;;;;;;6.70;4.40;;;;;;;;;;108645;1256;22539;-79
2023/07/14 07:33:12;;;;;;;6.70;4.40;;;;;;;;;;108771;1255;23028;-79
2023/07/14 07:35:38;;;;;;;5.50;3.80;;;;;;;;;;108675;1253;22595;-81
2023/07/14 07:38:05;;;;;;;7.20;3.90;;;;;;;;;;108573;1252;22589;-79
2023/07/14 07:40:32;;;;;;;4.20;3.20;;;;;;;;;;108394;1253;22574;-81
2023/07/14 07:42:59;;;;;;;5.40;2.90;;;;;;;;;;108312;1253;23260;-80
2023/07/14 07:45:26;;;;;;;4.80;3.20;;;;;;;;;;108304;1253;23274;-79
2023/07/14 07:47:52;;;;;;;4.80;3.80;;;;;;;;;;108299;1253;24189;-79
2023/07/14 07:50:18;;;;;;;5.10;3.40;;;;;;;;;;108475;1253;23915;-81
2023/07/14 07:52:45;;;;;;;4.80;3.10;;;;;;;;;;108847;1253;22572;-79
2023/07/14 07:55:11;;;;;;;5.20;3.20;;;;;;;;;;108761;1253;23264;-81
2023/07/14 07:57:38;;;;;;;4.90;2.40;;;;;;;;;;108723;1253;25499;-78
2023/07/14 08:00:06;;;;;;;2.70;2.00;;;;;;;;;;108299;1259;22555;-81
2023/07/14 08:02:35;;;;;;;5.80;2.50;;;;;;;;;;108393;1253;23082;-81
2023/07/14 08:05:02;;;;;;;3.60;2.60;;;;;;;;;;108299;1253;25510;-81
2023/07/14 08:07:29;;;;;;;3.60;1.90;;;;;;;;;;108459;1254;23189;-79
2023/07/14 08:09:56;;;;;;;4.20;2.20;;;;;;;;;;108451;1254;23010;-81
2023/07/14 08:12:23;;;;;;;3.00;2.50;;;;;;;;;;108445;1256;22590;-81
2023/07/14 08:14:54;;;;;;;6.50;2.30;;;;;;;;;;108371;1257;25287;-81
2023/07/14 08:17:21;;;;;;;8.10;3.30;;;;;;;;;;108290;1253;24248;-81
2023/07/14 08:19:48;;;;;;;3.80;2.40;;;;;;;;;;108265;1255;25441;-81
2023/07/14 08:22:14;;;;;;;5.10;2.20;;;;;;;;;;108243;1253;22536;-81
2023/07/14 08:24:41;;;;;;;5.10;2.20;;;;;;;;;;108438;1254;24553;-82
2023/07/14 08:27:07;;;;;;;6.70;1.90;;;;;;;;;;108357;1256;22535;-79
2023/07/14 08:29:34;;;;;;;7.10;2.10;;;;;;;;;;108129;1253;57274;-81
2023/07/14 08:32:00;;;;;;;4.50;1.90;;;;;;;;;;108157;1253;22539;-82
2023/07/14 08:34:27;;;;;;;11.40;2.40;;;;;;;;;;108494;1254;22583;-79
2023/07/14 08:36:53;;;;;;;8.10;2.30;;;;;;;;;;108460;1256;22510;-79
2023/07/14 08:39:20;;;;;;;4.90;1.70;;;;;;;;;;108259;1253;22550;-79
2023/07/14 08:41:49;;;;;;;2.90;1.60;;;;;;;;;;108048;1260;25389;-82
2023/07/14 08:44:38;;;;;;;4.00;1.70;;;;;;;;;;108439;1257;22574;-82
2023/07/14 08:47:14;;;;;;;3.80;1.90;;;;;;;;;;108300;1252;23297;-82
2023/07/14 08:49:46;;;;;;;4.90;2.30;;;;;;;;;;108283;1257;25213;-80
2023/07/14 08:52:23;;;;;;;3.20;2.00;;;;;;;;;;108173;1254;23670;-80
2023/07/14 08:54:53;;;;;;;2.50;1.60;;;;;;;;;;108349;1253;25416;-80
2023/07/14 08:57:20;;;;;;;6.40;1.80;;;;;;;;;;108301;1253;23001;-82
2023/07/14 08:59:47;;;;;;;4.40;1.90;;;;;;;;;;108304;1253;25496;-81
2023/07/14 09:02:16;;;;;;;5.10;2.10;;;;;;;;;;108320;1254;23586;-83
2023/07/14 09:04:42;;;;;;;2.50;2.00;;;;;;;;;;108324;1257;22527;-82
2023/07/14 09:07:10;;;;;;;5.30;1.80;;;;;;;;;;108348;1254;23072;-82
2023/07/14 09:09:38;;;;;;;5.00;2.20;;;;;;;;;;108229;1253;22534;-80
2023/07/14 09:12:05;;;;;;;7.80;2.20;;;;;;;;;;108204;1256;22524;-82
2023/07/14 09:14:50;;;;;;;4.50;1.80;;;;;;;;;;108332;1256;22537;-82
2023/07/14 09:17:19;;;;;;;2.20;1.50;;;;;;;;;;108217;1253;25288;-80
2023/07/14 09:19:54;;;;;;;4.10;1.70;;;;;;;;;;108163;1255;22560;-80
2023/07/14 09:22:33;;;;;;;11.40;2.30;;;;;;;;;;107827;1257;59535;-82
2023/07/14 09:24:59;;;;;;;7.50;2.20;;;;;;;;;;107335;1257;59781;-80
2023/07/14 09:27:27;;;;;;;5.00;1.60;;;;;;;;;;107352;1254;59748;-80
2023/07/14 09:29:53;;;;;;;3.20;1.60;;;;;;;;;;107534;1258;59984;-82
2023/07/14 09:32:23;;;;;;;9.00;2.30;;;;;;;;;;107688;1258;59631;-82
2023/07/14 09:34:52;;;;;;;2.80;1.80;;;;;;;;;;107708;1259;60785;-82
2023/07/14 09:37:19;;;;;;;4.30;1.90;;;;;;;;;;107841;1253;59564;-80
2023/07/14 09:39:46;;;;;;;3.50;1.80;;;;;;;;;;107817;1252;59500;-84
2023/07/14 09:42:23;;;;;;;6.50;2.10;;;;;;;;;;107673;1253;59731;-82
2023/07/14 09:44:49;;;;;;;2.70;2.10;;;;;;;;;;107764;1255;58976;-82
2023/07/14 09:47:15;;;;;;;10.20;3.30;;;;;;;;;;107752;1257;58713;-80
2023/07/14 09:49:43;;;;;;;3.00;2.10;;;;;;;;;;107554;1257;59704;-83
2023/07/14 09:52:10;;;;;;;4.60;1.70;;;;;;;;;;107505;1255;59022;-82
2023/07/14 09:54:37;;;;;;;;;;;;;;;;;;107589;1254;59109;-80
2023/07/14 09:57:05;;;;;;;7.60;6.20;;;;;;;;;;107463;1254;59509;-82
2023/07/14 09:59:31;;;;;;;4.80;2.30;;;;;;;;;;107417;1255;59736;-83
2023/07/14 10:02:00;;;;;;;5.10;2.00;;;;;;;;;;107386;1254;59654;-80
2023/07/14 10:04:30;;;;;;;13.50;2.20;;;;;;;;;;107653;1254;59539;-80
2023/07/14 10:07:16;;;;;;;3.80;1.50;;;;;;;;;;107425;1254;59628;-82
2023/07/14 10:09:54;;;;;;;3.90;2.20;;;;;;;;;;107226;1257;57897;-82
2023/07/14 10:12:20;;;;;;;4.80;2.30;;;;;;;;;;107426;1253;60054;-80
2023/07/14 10:14:49;;;;;;;4.80;1.80;;;;;;;;;;107868;1254;59476;-82
2023/07/14 10:17:23;;;;;;;4.20;2.10;;;;;;;;;;107631;1252;59736;-80
2023/07/14 10:19:50;;;;;;;4.20;1.50;;;;;;;;;;107407;1259;59601;-83
2023/07/14 10:22:20;;;;;;;5.20;1.70;;;;;;;;;;107496;1254;59548;-81
2023/07/14 10:24:47;;;;;;;4.80;2.20;;;;;;;;;;107565;1252;59609;-80
2023/07/14 10:27:15;;;;;;;3.00;1.50;;;;;;;;;;107491;1253;59680;-80
2023/07/14 10:29:41;;;;;;;;;;;;;;;;;;107794;1253;59618;-81
2023/07/14 10:32:09;;;;;;;2.30;1.50;;;;;;;;;;107721;1253;59620;-81
2023/07/14 10:34:47;;;;;;;4.10;1.40;;;;;;;;;;107847;1257;58506;-81
2023/07/14 10:37:17;;;;;;;4.20;3.00;;;;;;;;;;107573;1254;59586;-83
2023/07/14 10:39:45;;;;;;;4.10;2.30;;;;;;;;;;109473;1254;57493;-80
2023/07/14 10:42:14;;;;;;;5.00;1.80;;;;;;;;;;107635;1254;59619;-80
2023/07/14 10:44:41;;;;;;;4.90;1.60;;;;;;;;;;107910;1254;59614;-80
2023/07/14 10:47:13;;;;;;;4.60;1.60;;;;;;;;;;107731;1252;59611;-82
2023/07/14 10:49:40;;;;;;;4.80;1.80;;;;;;;;;;107550;1252;59621;-83
2023/07/14 10:52:11;;;;;;;8.90;2.00;;;;;;;;;;107617;1256;59603;-80
2023/07/14 10:54:57;;;;;;;3.90;1.80;;;;;;;;;;107687;1254;59585;-80
2023/07/14 10:57:34;;;;;;;6.20;1.50;;;;;;;;;;107654;1257;59670;-81
2023/07/14 11:00:14;;;;;;;4.40;1.80;;;;;;;;;;107428;1255;59485;-83
2023/07/14 11:02:41;;;;;;;2.70;1.40;;;;;;;;;;107462;1254;59590;-83
2023/07/14 11:05:13;;;;;;;4.80;1.50;;;;;;;;;;107419;1252;60338;-83
2023/07/14 11:07:39;;;;;;;3.90;2.30;;;;;;;;;;107330;1254;61823;-81
2023/07/14 11:10:28;;;;;;;10.40;1.70;;;;;;;;;;107330;1254;60306;-81
2023/07/14 11:13:14;;;;;;;2.80;1.50;;;;;;;;;;107443;1256;60368;-83
2023/07/14 11:15:47;;;;;;;4.00;1.40;;;;;;;;;;107524;1255;60524;-83
2023/07/14 11:18:14;;;;;;;8.20;1.80;;;;;;;;;;107431;1254;60541;-83
2023/07/14 11:20:44;;;;;;;7.30;1.60;;;;;;;;;;107387;1254;60438;-83
2023/07/14 11:23:17;;;;;;;3.50;1.90;;;;;;;;;;107376;1254;59045;-80
2023/07/14 11:25:47;;;;;;;2.00;1.20;;;;;;;;;;107394;1257;60412;-81
2023/07/14 11:28:35;;;;;;;3.70;1.70;;;;;;;;;;107468;1254;60458;-83
2023/07/14 11:31:11;;;;;;;4.50;1.40;;;;;;;;;;107455;1254;60761;-82
2023/07/14 11:33:41;;;;;;;3.50;1.50;;;;;;;;;;107576;1256;60476;-83
2023/07/14 11:36:08;;;;;;;3.50;1.40;;;;;;;;;;107516;1256;60319;-83
2023/07/14 11:38:45;;;;;;;5.40;2.80;;;;;;;;;;107556;1254;60441;-81
2023/07/14 11:41:13;;;;;;;3.30;1.50;;;;;;;;;;107467;1252;58991;-81
2023/07/14 11:43:40;;;;;;;5.50;1.80;;;;;;;;;;107615;1253;59464;-83
2023/07/14 11:46:08;;;;;;;6.50;1.80;;;;;;;;;;107507;1254;60815;-81
2023/07/14 11:48:36;;;;;;;5.00;2.30;;;;;;;;;;107405;1256;58981;-83
2023/07/14 11:51:03;;;;;;;2.40;1.30;;;;;;;;;;107403;1256;60403;-83
2023/07/14 11:53:32;;;;;;;2.00;1.50;;;;;;;;;;107615;1253;60438;-81
2023/07/14 11:56:10;;;;;;;5.60;1.30;;;;;;;;;;107440;1252;60411;-81
2023/07/14 11:58:37;;;;;;;5.30;1.40;;;;;;;;;;107383;1254;61251;-83
2023/07/14 12:01:13;;;;;;;4.60;1.50;;;;;;;;;;107410;1254;60326;-81
2023/07/14 12:03:40;;;;;;;8.70;1.50;;;;;;;;;;107542;1253;60255;-83
2023/07/14 12:06:07;;;;;;;;;;;;;;;;;;107510;1253;61193;-82
2023/07/14 12:08:38;;;;;;;2.30;1.20;;;;;;;;;;107400;1254;60316;-81
2023/07/14 12:11:04;;;;;;;3.70;1.40;;;;;;;;;;107460;1251;60510;-83
2023/07/14 12:13:34;;;;;;;1.90;1.30;;;;;;;;;;107586;1254;60457;-83
2023/07/14 12:16:01;;;;;;;6.10;1.30;;;;;;;;;;107508;1254;59073;-83
2023/07/14 12:18:35;;;;;;;4.40;2.00;;;;;;;;;;107445;1254;60448;-81
2023/07/14 12:21:28;;;;;;;2.00;1.20;;;;;;;;;;107349;1257;60526;-81
2023/07/14 12:23:56;;;;;;;3.90;2.60;;;;;;;;;;107449;1256;60335;-82
2023/07/14 12:26:40;;;;;;;4.40;1.50;;;;;;;;;;107784;1254;60447;-83
2023/07/14 12:29:13;;;;;;;7.30;1.80;;;;;;;;;;107631;1256;60310;-81
2023/07/14 12:31:39;;;;;;;4.00;1.50;;;;;;;;;;107543;1256;60328;-81
2023/07/14 12:34:08;;;;;;;4.30;3.90;;;;;;;;;;107720;1256;60377;-80
2023/07/14 12:36:34;;;;;;;6.50;1.70;;;;;;;;;;107727;1248;60329;-82
2023/07/14 12:39:04;;;;;;;5.20;1.80;;;;;;;;;;107624;1251;60441;-80
2023/07/14 12:41:32;;;;;;;7.30;2.10;;;;;;;;;;107623;1247;60514;-82
2023/07/14 12:43:59;;;;;;;5.30;1.80;;;;;;;;;;107748;1248;60472;-82
2023/07/14 12:46:26;;;;;;;2.30;1.30;;;;;;;;;;107741;1251;60351;-83
2023/07/14 12:49:17;;;;;;;3.20;1.60;;;;;;;;;;107731;1248;60316;-82
2023/07/14 12:51:44;;;;;;;3.00;1.50;;;;;;;;;;107702;1254;59132;-83
2023/07/14 12:54:14;;;;;;;6.10;1.90;;;;;;;;;;107872;1251;60523;-81
2023/07/14 12:56:40;;;;;;;3.50;1.60;;;;;;;;;;107665;1248;61561;-80
2023/07/14 12:59:14;;;;;;;2.20;1.50;;;;;;;;;;107629;1248;60444;-81
2023/07/14 13:01:44;;;;;;;13.50;3.00;;;;;;;;;;107678;1253;60405;-82
2023/07/14 13:04:11;;;;;;;3.70;1.90;;;;;;;;;;107958;1248;59036;-81
2023/07/14 13:06:37;;;;;;;8.70;1.80;;;;;;;;;;107751;1248;60460;-83
2023/07/14 13:09:11;;;;;;;3.30;1.90;;;;;;;;;;107957;1247;60328;-81
2023/07/14 13:11:37;;;;;;;4.20;2.60;;;;;;;;;;107966;1248;60516;-81
2023/07/14 13:14:04;;;;;;;13.70;5.40;;;;;;;;;;107956;1251;60488;-84
2023/07/14 13:16:31;;;;;;;4.30;2.70;;;;;;;;;;107875;1248;59006;-83
2023/07/14 13:18:58;;;;;;;4.30;1.50;;;;;;;;;;107752;1248;59404;-81
2023/07/14 13:21:28;;;;;;;2.80;1.60;;;;;;;;;;107606;1248;60429;-81
2023/07/14 13:23:55;;;;;;;4.20;2.10;;;;;;;;;;107909;1248;60436;-83
2023/07/14 13:26:21;;;;;;;3.00;1.80;;;;;;;;;;107820;1247;60450;-81
2023/07/14 13:28:54;;;;;;;5.30;2.10;;;;;;;;;;107867;1248;60732;-81
2023/07/14 13:31:21;;;;;;;4.90;2.00;;;;;;;;;;107443;1248;60457;-81
2023/07/14 13:33:47;;;;;;;5.80;1.70;;;;;;;;;;107737;1248;60412;-81
2023/07/14 13:36:20;;;;;;;8.80;3.00;;;;;;;;;;107435;1249;60606;-81
2023/07/14 13:38:46;;;;;;;11.10;2.80;;;;;;;;;;107443;1253;60507;-83
2023/07/14 13:41:17;;;;;;;2.30;1.60;;;;;;;;;;107246;1248;60312;-83
2023/07/14 13:43:44;;;;;;;5.00;2.20;;;;;;;;;;107524;1248;60457;-83
2023/07/14 13:46:12;;;;;;;;;;;;;;;;;;107957;1248;60400;-81
2023/07/14 13:48:39;;;;;;;4.30;2.40;;;;;;;;;;107695;1248;60448;-80
2023/07/14 13:51:12;;;;;;;10.00;7.60;;;;;;;;;;107527;1253;60558;-83
2023/07/14 13:53:39;;;;;;;3.70;1.80;;;;;;;;;;107871;1251;60274;-83
2023/07/14 13:56:07;;;;;;;2.90;1.80;;;;;;;;;;107903;1248;60473;-81
2023/07/14 13:58:33;;;;;;;5.50;1.90;;;;;;;;;;107716;1248;60524;-82
2023/07/14 14:01:00;;;;;;;7.10;1.80;;;;;;;;;;107460;1253;60532;-80
2023/07/14 14:03:26;;;;;;;4.30;1.90;;;;;;;;;;107679;1248;60460;-81
2023/07/14 14:05:52;;;;;;;4.00;1.50;;;;;;;;;;107545;1251;60379;-81
2023/07/14 14:08:19;;;;;;;5.80;2.00;;;;;;;;;;107342;1248;60615;-83
2023/07/14 14:10:46;;;;;;;1.90;1.50;;;;;;;;;;107740;1247;60383;-83
2023/07/14 14:13:12;;;;;;;2.50;1.50;;;;;;;;;;107958;1248;61524;-80
2023/07/14 14:15:44;;;;;;;3.70;1.60;;;;;;;;;;108290;1251;60531;-83
2023/07/14 14:18:15;;;;;;;7.10;1.70;;;;;;;;;;108150;1253;59456;-83
2023/07/14 14:20:41;;;;;;;3.00;1.70;;;;;;;;;;107939;1248;60474;-81
2023/07/14 14:23:11;;;;;;;3.20;1.50;;;;;;;;;;108062;1247;61072;-83
2023/07/14 14:25:38;;;;;;;4.30;1.90;;;;;;;;;;107839;1251;60760;-81
2023/07/14 14:28:04;;;;;;;14.60;2.90;;;;;;;;;;107965;1248;60325;-83
2023/07/14 14:30:38;;;;;;;7.90;1.90;;;;;;;;;;107733;1248;60474;-83
2023/07/14 14:33:04;;;;;;;4.30;1.80;;;;;;;;;;107705;1247;60425;-83
2023/07/14 14:35:32;;;;;;;4.00;1.70;;;;;;;;;;107752;1251;60428;-83
2023/07/14 14:37:59;;;;;;;4.90;1.90;;;;;;;;;;107508;1248;60542;-82
2023/07/14 14:40:26;;;;;;;11.00;2.00;;;;;;;;;;107474;1249;60431;-83
2023/07/14 14:42:53;;;;;;;;;;;;;;;;;;107554;1251;60422;-83